Time,TemperatureF,DewpointF,PressureIn,WindDirection,WindDirectionDegrees,WindSpeedMPH,WindSpeedGustMPH,Humidity,HourlyPrecipIn,Conditions,Clouds,dailyrainin,SoftwareType,DateUTC
2013-07-08 00:08:00,68.1,66.0,30.06,South,187,0.0,0.0,94,0.00,,,0.00,weatherlink.com 1.10,2013-07-08 04:08:00,
2013-07-08 00:23:00,67.9,66.0,30.06,South,187,0.0,0.0,94,0.00,,,0.00,weatherlink.com 1.10,2013-07-08 04:23:00,
2013-07-08 00:38:00,67.6,66.0,30.06,South,187,0.0,0.0,94,0.00,,,0.00,weatherlink.com 1.10,2013-07-08 04:38:00,
2013-07-08 00:53:00,67.4,66.0,30.06,South,187,0.0,0.0,94,0.00,,,0.00,weatherlink.com 1.10,2013-07-08 04:53:00,
2013-07-08 01:08:00,67.1,66.0,30.06,South,187,0.0,0.0,95,0.00,,,0.00,weatherlink.com 1.10,2013-07-08 05:08:00,
2013-07-08 01:23:00,67.0,66.0,30.06,South,187,0.0,0.0,95,0.00,,,0.00,weatherlink.com 1.10,2013-07-08 05:23:00,
2013-07-08 01:38:00,66.7,65.0,30.06,South,187,0.0,0.0,95,0.00,,,0.00,weatherlink.com 1.10,2013-07-08 05:38:00,
2013-07-08 01:53:00,66.6,65.0,30.06,South,187,0.0,0.0,95,0.00,,,0.00,weatherlink.com 1.10,2013-07-08 05:53:00,
2013-07-08 02:08:00,66.4,65.0,30.06,South,187,0.0,0.0,95,0.00,,,0.00,weatherlink.com 1.10,2013-07-08 06:08:00,
2013-07-08 02:23:00,66.2,65.0,30.06,South,187,0.0,0.0,95,0.00,,,0.00,weatherlink.com 1.10,2013-07-08 06:23:00,
2013-07-08 02:38:00,66.1,65.0,30.06,South,187,0.0,0.0,95,0.00,,,0.00,weatherlink.com 1.10,2013-07-08 06:38:00,
2013-07-08 02:53:00,65.9,65.0,30.07,South,187,0.0,0.0,95,0.00,,,0.00,weatherlink.com 1.10,2013-07-08 06:53:00,
2013-07-08 03:08:00,65.8,65.0,30.07,South,187,0.0,0.0,96,0.00,,,0.00,weatherlink.com 1.10,2013-07-08 07:08:00,
2013-07-08 03:23:00,65.6,65.0,30.06,South,187,0.0,0.0,96,0.00,,,0.00,weatherlink.com 1.10,2013-07-08 07:23:00,
2013-07-08 03:38:00,65.4,64.0,30.06,South,187,0.0,0.0,95,0.00,,,0.00,weatherlink.com 1.10,2013-07-08 07:38:00,
2013-07-08 03:53:00,65.2,64.0,30.06,South,187,0.0,0.0,96,0.00,,,0.00,weatherlink.com 1.10,2013-07-08 07:53:00,
2013-07-08 04:08:00,65.1,64.0,30.06,South,187,0.0,0.0,96,0.00,,,0.00,weatherlink.com 1.10,2013-07-08 08:08:00,
2013-07-08 04:23:00,65.0,64.0,30.06,South,187,0.0,0.0,96,0.00,,,0.00,weatherlink.com 1.10,2013-07-08 08:23:00,
2013-07-08 04:38:00,64.8,64.0,30.06,South,187,0.0,0.0,96,0.00,,,0.00,weatherlink.com 1.10,2013-07-08 08:38:00,
2013-07-08 04:53:00,64.8,64.0,30.06,South,187,0.0,0.0,96,0.00,,,0.00,weatherlink.com 1.10,2013-07-08 08:53:00,
2013-07-08 05:08:00,64.8,64.0,30.06,South,187,0.0,0.0,96,0.00,,,0.00,weatherlink.com 1.10,2013-07-08 09:08:00,
2013-07-08 05:23:00,64.6,64.0,30.07,South,187,0.0,0.0,96,0.00,,,0.00,weatherlink.com 1.10,2013-07-08 09:23:00,
2013-07-08 05:38:00,64.5,63.0,30.07,South,187,0.0,0.0,96,0.00,,,0.00,weatherlink.com 1.10,2013-07-08 09:38:00,
2013-07-08 05:53:00,64.5,64.0,30.07,South,187,0.0,0.0,97,0.00,,,0.00,weatherlink.com 1.10,2013-07-08 09:53:00,
2013-07-08 06:08:00,64.4,63.0,30.06,South,187,0.0,0.0,96,0.00,,,0.00,weatherlink.com 1.10,2013-07-08 10:08:00,
2013-07-08 06:23:00,64.3,63.0,30.06,South,187,0.0,0.0,96,0.00,,,0.00,weatherlink.com 1.10,2013-07-08 10:23:00,
2013-07-08 06:38:00,64.2,63.0,30.06,South,187,0.0,0.0,96,0.00,,,0.00,weatherlink.com 1.10,2013-07-08 10:38:00,
2013-07-08 06:53:00,64.2,63.0,30.07,South,187,0.0,0.0,97,0.00,,,0.00,weatherlink.com 1.10,2013-07-08 10:53:00,
2013-07-08 07:08:00,64.3,64.0,30.07,South,187,0.0,0.0,97,0.00,,,0.00,weatherlink.com 1.10,2013-07-08 11:08:00,
2013-07-08 07:23:00,64.6,64.0,30.07,South,187,0.0,0.0,97,0.00,,,0.00,weatherlink.com 1.10,2013-07-08 11:23:00,
2013-07-08 07:38:00,65.3,65.0,30.08,South,187,0.0,0.0,98,0.00,,,0.00,weatherlink.com 1.10,2013-07-08 11:38:00,
2013-07-08 07:53:00,65.9,65.0,30.09,South,188,0.0,0.0,98,0.00,,,0.00,weatherlink.com 1.10,2013-07-08 11:53:00,
2013-07-08 08:08:00,67.0,67.0,30.09,South,188,0.0,0.0,98,0.00,,,0.00,weatherlink.com 1.10,2013-07-08 12:08:00,
2013-07-08 08:23:00,68.2,68.0,30.09,South,188,0.0,0.0,98,0.00,,,0.00,weatherlink.com 1.10,2013-07-08 12:23:00,
2013-07-08 08:38:00,69.6,69.0,30.09,South,188,0.0,2.0,98,0.00,,,0.00,weatherlink.com 1.10,2013-07-08 12:38:00,
2013-07-08 08:53:00,71.5,71.0,30.09,South,191,1.0,3.0,98,0.00,,,0.00,weatherlink.com 1.10,2013-07-08 12:53:00,
2013-07-08 09:08:00,73.7,71.0,30.09,SSW,192,1.0,4.0,90,0.00,,,0.00,weatherlink.com 1.10,2013-07-08 13:08:00,
2013-07-08 09:24:00,75.5,71.0,30.09,South,175,1.0,7.0,86,0.00,,,0.00,weatherlink.com 1.10,2013-07-08 13:24:00,
2013-07-08 09:39:00,76.7,72.0,30.10,SSE,167,2.0,6.0,84,0.00,,,0.00,weatherlink.com 1.10,2013-07-08 13:39:00,
2013-07-08 09:54:00,77.6,72.0,30.10,South,186,2.0,5.0,83,0.00,,,0.00,weatherlink.com 1.10,2013-07-08 13:54:00,
2013-07-08 10:09:00,78.5,72.0,30.10,SW,223,1.0,7.0,80,0.00,,,0.00,weatherlink.com 1.10,2013-07-08 14:09:00,
2013-07-08 10:24:00,79.1,72.0,30.09,SW,232,5.0,5.0,80,0.00,,,0.00,weatherlink.com 1.10,2013-07-08 14:24:00,
2013-07-08 10:39:00,79.6,73.0,30.10,SW,223,3.0,5.0,80,0.00,,,0.00,weatherlink.com 1.10,2013-07-08 14:39:00,
2013-07-08 10:54:00,80.3,73.0,30.09,SW,220,3.0,7.0,77,0.00,,,0.00,weatherlink.com 1.10,2013-07-08 14:54:00,
2013-07-08 11:09:00,80.9,73.0,30.10,SW,224,2.0,6.0,76,0.00,,,0.00,weatherlink.com 1.10,2013-07-08 15:09:00,
2013-07-08 11:24:00,81.9,73.0,30.10,WSW,242,3.0,9.0,75,0.00,,,0.00,weatherlink.com 1.10,2013-07-08 15:24:00,
2013-07-08 11:39:00,82.6,73.0,30.10,SW,232,5.0,10.0,73,0.00,,,0.00,weatherlink.com 1.10,2013-07-08 15:39:00,
2013-07-08 11:54:00,83.2,73.0,30.11,SSE,151,2.0,9.0,72,0.00,,,0.00,weatherlink.com 1.10,2013-07-08 15:54:00,
2013-07-08 12:09:00,83.6,74.0,30.11,South,184,5.0,7.0,72,0.00,,,0.00,weatherlink.com 1.10,2013-07-08 16:09:00,
2013-07-08 12:24:00,83.9,73.0,30.11,SSE,167,2.0,7.0,70,0.00,,,0.00,weatherlink.com 1.10,2013-07-08 16:24:00,
2013-07-08 12:39:00,84.4,73.0,30.11,South,176,3.0,7.0,69,0.00,,,0.00,weatherlink.com 1.10,2013-07-08 16:39:00,
2013-07-08 12:54:00,85.3,73.0,30.10,WSW,257,4.0,7.0,67,0.00,,,0.00,weatherlink.com 1.10,2013-07-08 16:54:00,
2013-07-08 13:09:00,86.6,75.0,30.10,WSW,244,1.0,8.0,69,0.00,,,0.00,weatherlink.com 1.10,2013-07-08 17:09:00,
2013-07-08 13:24:00,87.0,74.0,30.10,SW,229,3.0,8.0,66,0.00,,,0.00,weatherlink.com 1.10,2013-07-08 17:24:00,
2013-07-08 13:39:00,86.6,75.0,30.09,SSE,155,2.0,7.0,68,0.00,,,0.00,weatherlink.com 1.10,2013-07-08 17:39:00,
2013-07-08 13:54:00,87.2,74.0,30.09,NW,312,1.0,8.0,64,0.00,,,0.00,weatherlink.com 1.10,2013-07-08 17:54:00,
2013-07-08 14:09:00,87.9,75.0,30.08,South,184,1.0,7.0,65,0.00,,,0.00,weatherlink.com 1.10,2013-07-08 18:09:00,
2013-07-08 15:09:00,87.6,76.0,30.07,SSE,151,4.0,11.0,69,0.00,,,0.00,weatherlink.com 1.10,2013-07-08 19:09:00,
2013-07-08 15:24:00,88.1,74.0,30.07,SSW,208,4.0,8.0,63,0.00,,,0.00,weatherlink.com 1.10,2013-07-08 19:24:00,
2013-07-08 15:54:00,86.3,74.0,30.06,South,173,1.0,7.0,66,0.00,,,0.00,weatherlink.com 1.10,2013-07-08 19:54:00,
2013-07-08 16:09:00,86.3,75.0,30.05,SSW,209,2.0,6.0,68,0.00,,,0.00,weatherlink.com 1.10,2013-07-08 20:09:00,
2013-07-08 16:24:00,86.6,74.0,30.05,South,182,3.0,6.0,66,0.00,,,0.00,weatherlink.com 1.10,2013-07-08 20:24:00,
2013-07-08 16:39:00,86.3,74.0,30.04,SSW,209,4.0,6.0,66,0.00,,,0.00,weatherlink.com 1.10,2013-07-08 20:39:00,
2013-07-08 17:10:00,86.7,75.0,30.02,SSW,200,2.0,9.0,69,0.00,,,0.00,weatherlink.com 1.10,2013-07-08 21:10:00,
2013-07-08 18:55:00,86.8,74.0,30.01,South,173,2.0,8.0,65,0.00,,,0.00,weatherlink.com 1.10,2013-07-08 22:55:00,
2013-07-08 19:10:00,86.0,74.0,30.01,SSW,202,2.0,6.0,67,0.00,,,0.00,weatherlink.com 1.10,2013-07-08 23:10:00,
2013-07-08 19:25:00,85.0,74.0,30.01,South,173,1.0,5.0,69,0.00,,,0.00,weatherlink.com 1.10,2013-07-08 23:25:00,
2013-07-08 19:55:00,84.4,73.0,30.02,SSE,161,6.0,6.0,69,0.00,,,0.00,weatherlink.com 1.10,2013-07-08 23:55:00,
2013-07-08 20:10:00,83.9,73.0,30.02,South,169,0.0,5.0,70,0.00,,,0.00,weatherlink.com 1.10,2013-07-09 00:10:00,
2013-07-08 20:40:00,82.8,73.0,30.03,SSE,167,0.0,3.0,72,0.00,,,0.00,weatherlink.com 1.10,2013-07-09 00:40:00,
2013-07-08 20:55:00,82.2,74.0,30.03,SSE,167,0.0,1.0,76,0.00,,,0.00,weatherlink.com 1.10,2013-07-09 00:55:00,
2013-07-08 21:10:00,80.6,74.0,30.04,SSE,167,1.0,2.0,79,0.00,,,0.00,weatherlink.com 1.10,2013-07-09 01:10:00,
2013-07-08 21:25:00,78.9,73.0,30.03,SSE,167,0.0,1.0,83,0.00,,,0.00,weatherlink.com 1.10,2013-07-09 01:25:00,
2013-07-08 21:40:00,77.6,73.0,30.04,SSE,167,0.0,0.0,85,0.00,,,0.00,weatherlink.com 1.10,2013-07-09 01:40:00,
2013-07-08 22:10:00,75.8,72.0,30.04,SSE,167,0.0,1.0,88,0.00,,,0.00,weatherlink.com 1.10,2013-07-09 02:10:00,
2013-07-08 22:25:00,75.0,72.0,30.05,SSE,167,0.0,0.0,89,0.00,,,0.00,weatherlink.com 1.10,2013-07-09 02:25:00,
2013-07-08 22:40:00,74.6,72.0,30.05,SSE,167,0.0,0.0,90,0.00,,,0.00,weatherlink.com 1.10,2013-07-09 02:40:00,
2013-07-08 22:55:00,74.0,71.0,30.05,SSE,167,0.0,0.0,90,0.00,,,0.00,weatherlink.com 1.10,2013-07-09 02:55:00,
2013-07-08 23:25:00,73.1,71.0,30.05,SSE,167,0.0,0.0,92,0.00,,,0.00,weatherlink.com 1.10,2013-07-09 03:25:00,
2013-07-08 23:55:00,72.6,71.0,30.05,SSE,167,0.0,0.0,93,0.00,,,0.00,weatherlink.com 1.10,2013-07-09 03:55:00,